Ana Sayfa
METAR-TAF:

METAR-TAF

Havaalanları :

Ulan Ude, Rusya

Enlem: 51-50N, Boylam: 107-36E, yükseklik: 510 m

Güncel hava durumu gözlemi

Rapor saat 09:00 UTC de 40 dakika önce yapıldı.
Rüzgar kuzeydan 14 kt, kuzeybatı ve kuzey/kuzeydoğu arasında değişken
Sıcaklık 22°C
Nem 20%
Basınç 1013 hPa
Görüş mesafesi 10 km veya daha fazla

METAR: UIUU 240900Z 35007MPS 320V020 9999 NSC 22/M02 Q1013 R26/CLRD60 NOSIG RMK QFE716/0954

Saat: 17:40 (09:40 UTC)

Tahmin

Rapor saat 08:00 UTC de 1 saat ve 40 dakika önce yapıldı.
Ayın 24'si saat 09 UTC'den ayın 25'si saat 09 UTC'ye kadar geçerli Tahmin
Rüzgar kuzey/kuzeybatıdan 10 kt ve 19 kt'a kadar ani rüzgarlar
Görüş mesafesi 10 km veya daha fazla
4000 ft yükseklikte parçalı bulutlu, Kümülonimbus.
Geçici
ayın 24'si saat 09 UTC'den ayın 25'si saat 09 UTC'ye kadar
Rüzgar doğu/kuzeydoğudan 6 kt ve 16 kt'a kadar ani rüzgarlar

TAF: UIUU 240800Z 2409/2509 34005G10MPS 9999 SCT040CB TEMPO 2409/2509 06003G08MPS

4.000'den fazla havaalanı için hava durumu gözlemleri ve tahminleri (METAR ve TAF raporları).

Kullanılabilir istasyonlar harita üzerinde sarı ve kırmızı noktalarla gösterilir.

İstasyonun adını görmek için fareyi noktanın üzerinde gezdirin.

Sonrasında hava gözlem ve tahminlerini görmek için tıklayın.

Haritayı değiştirmek için: yaklaştırmak için siyah artı işaretli yeşil düğmeye ve uzaklaştırmak için de eksi işaretli düğmeye hızla tıklayın; bitişik haritalar için yeşil okları kullanın.


METAR-TAF: